Time;durP1;ratioP1;P1;durP2;ratioP2;P2;SDS_P1;SDS_P2;PMS_P1;PMS_P2;Temp;Humidity;BMP_temperature;BMP_pressure;BME280_temperature;BME280_humidity;BME280_pressure;Samples;Min_cycle;Max_cycle;Signal;HPM_P1;HPM_P2
2023/03/14 00:01:44;;;;;;;3.70;1.50;;;11.90;99.90;;;;;;5067369;28;20473;-52
2023/03/14 00:04:11;;;;;;;2.60;1.30;;;11.80;99.90;;;;;;5065814;28;20865;-52
2023/03/14 00:06:38;;;;;;;1.50;1.30;;;11.90;99.90;;;;;;5063606;28;20568;-51
2023/03/14 00:09:04;;;;;;;1.60;1.50;;;11.80;99.90;;;;;;5070275;28;21088;-53
2023/03/14 00:11:31;;;;;;;1.70;1.33;;;11.80;99.90;;;;;;5062350;28;20576;-53
2023/03/14 00:13:59;;;;;;;3.83;1.40;;;11.80;99.90;;;;;;5051436;28;20453;-51
2023/03/14 00:16:26;;;;;;;1.93;1.70;;;11.80;99.90;;;;;;5064431;28;20457;-52
2023/03/14 00:18:53;;;;;;;1.50;1.40;;;11.70;99.90;;;;;;5070529;28;20457;-53
2023/03/14 00:21:19;;;;;;;1.07;1.07;;;11.70;99.90;;;;;;5060640;28;20510;-53
2023/03/14 00:23:46;;;;;;;1.30;1.30;;;11.70;99.90;;;;;;5065114;28;20477;-52
2023/03/14 00:26:15;;;;;;;1.43;1.33;;;11.60;99.90;;;;;;5066502;28;20979;-52
2023/03/14 00:28:42;;;;;;;3.43;1.40;;;11.70;99.90;;;;;;5067198;28;20519;-52
2023/03/14 00:31:12;;;;;;;1.83;1.17;;;11.70;99.90;;;;;;5065627;28;20509;-51
2023/03/14 00:33:39;;;;;;;1.20;1.10;;;11.70;99.90;;;;;;5069441;28;20490;-52
2023/03/14 00:36:09;;;;;;;1.80;1.10;;;11.60;99.90;;;;;;5070134;28;20527;-52
2023/03/14 00:38:37;;;;;;;1.50;1.37;;;11.60;99.90;;;;;;5067006;28;20540;-52
2023/03/14 00:41:04;;;;;;;1.37;1.00;;;11.70;99.90;;;;;;5069858;28;20559;-51
2023/03/14 00:43:31;;;;;;;3.13;1.47;;;11.60;99.90;;;;;;5072738;28;20809;-52
2023/03/14 00:45:58;;;;;;;1.77;1.30;;;11.60;99.90;;;;;;5072934;28;20841;-51
2023/03/14 00:48:26;;;;;;;2.60;1.50;;;11.50;99.90;;;;;;5071798;28;20554;-52
2023/03/14 00:50:52;;;;;;;2.30;1.57;;;11.60;99.90;;;;;;5071551;28;20508;-52
2023/03/14 00:53:19;;;;;;;1.47;1.37;;;11.50;99.90;;;;;;5066859;28;20500;-52
2023/03/14 00:55:46;;;;;;;1.50;1.40;;;11.50;99.90;;;;;;5066111;28;20501;-52
2023/03/14 00:58:14;;;;;;;1.90;1.17;;;11.40;99.90;;;;;;5072758;28;20476;-52
2023/03/14 01:00:42;;;;;;;1.60;1.50;;;11.50;99.90;;;;;;5065743;28;20493;-52
2023/03/14 01:03:09;;;;;;;1.40;1.30;;;11.50;99.90;;;;;;5077684;28;20992;-53
2023/03/14 01:05:37;;;;;;;1.07;1.07;;;11.40;99.90;;;;;;5066871;28;20959;-52
2023/03/14 01:08:06;;;;;;;1.23;1.13;;;11.40;99.90;;;;;;5067231;28;20528;-53
2023/03/14 01:10:33;;;;;;;1.37;1.20;;;11.40;99.90;;;;;;5072112;28;20462;-53
2023/03/14 01:13:00;;;;;;;2.30;1.30;;;11.40;99.90;;;;;;5073680;28;20493;-51
2023/03/14 01:15:26;;;;;;;1.17;1.17;;;11.40;99.90;;;;;;5064556;28;20554;-52
2023/03/14 01:17:53;;;;;;;1.90;1.53;;;11.30;99.90;;;;;;5062964;28;20486;-54
2023/03/14 01:20:20;;;;;;;1.40;1.30;;;11.30;99.90;;;;;;5072153;28;20970;-52
2023/03/14 01:22:48;;;;;;;1.17;1.17;;;11.30;99.90;;;;;;5070311;28;20513;-53
2023/03/14 01:25:16;;;;;;;1.90;1.07;;;11.30;99.90;;;;;;5064384;28;20490;-52
2023/03/14 01:27:42;;;;;;;3.00;1.27;;;11.30;99.90;;;;;;5066298;28;20516;-52
2023/03/14 01:30:11;;;;;;;1.20;1.10;;;11.40;99.90;;;;;;5061937;28;20827;-52
2023/03/14 01:32:38;;;;;;;2.87;1.20;;;11.30;99.90;;;;;;5073369;28;20513;-53
2023/03/14 01:35:06;;;;;;;1.90;1.40;;;11.30;99.90;;;;;;5069374;28;20497;-52
2023/03/14 01:37:32;;;;;;;1.10;1.10;;;11.30;99.90;;;;;;5067397;28;20458;-53
2023/03/14 01:40:00;;;;;;;1.57;1.37;;;11.40;99.90;;;;;;5070433;28;20461;-51
2023/03/14 01:42:27;;;;;;;2.63;1.40;;;11.40;99.90;;;;;;5070844;28;22365;-52
2023/03/14 01:44:56;;;;;;;1.63;1.53;;;11.40;99.90;;;;;;5068122;28;20495;-51
2023/03/14 01:47:24;;;;;;;1.43;1.33;;;11.40;99.90;;;;;;5070056;28;20515;-52
2023/03/14 01:49:54;;;;;;;1.23;1.23;;;11.40;99.90;;;;;;5066612;28;20879;-51
2023/03/14 01:52:24;;;;;;;1.63;1.30;;;11.40;99.90;;;;;;5069291;28;20485;-52
2023/03/14 01:54:53;;;;;;;1.50;1.40;;;11.40;99.90;;;;;;5061187;28;20474;-52
2023/03/14 01:57:26;;;;;;;3.33;1.37;;;11.30;99.90;;;;;;5072150;28;20833;-51
2023/03/14 01:59:57;;;;;;;3.63;1.40;;;11.30;99.90;;;;;;5068096;28;20823;-53
2023/03/14 02:02:25;;;;;;;1.27;1.17;;;11.20;99.90;;;;;;5073647;28;20485;-51
2023/03/14 02:04:52;;;;;;;1.03;0.93;;;11.20;99.90;;;;;;5072485;28;20493;-53
2023/03/14 02:07:23;;;;;;;1.47;1.20;;;11.20;99.90;;;;;;5065121;28;20998;-54
2023/03/14 02:09:50;;;;;;;1.23;1.10;;;11.20;99.90;;;;;;5063784;28;20509;-52
2023/03/14 02:12:19;;;;;;;2.40;1.50;;;11.20;99.90;;;;;;5069735;28;20578;-51
2023/03/14 02:14:48;;;;;;;1.40;1.23;;;11.20;99.90;;;;;;5066749;28;20500;-51
2023/03/14 02:17:16;;;;;;;3.10;1.37;;;11.10;99.90;;;;;;5071330;22;20585;-53
2023/03/14 02:20:01;;;;;;;1.40;1.30;;;11.10;99.90;;;;;;5046206;28;20486;-53
2023/03/14 02:22:27;;;;;;;1.33;1.23;;;11.10;99.90;;;;;;5052664;28;20955;-53
2023/03/14 02:25:03;;;;;;;1.57;1.47;;;11.10;99.90;;;;;;5050631;28;20544;-53
2023/03/14 02:27:32;;;;;;;2.60;1.40;;;11.10;99.90;;;;;;5047522;28;20486;-53
2023/03/14 02:30:00;;;;;;;1.50;1.40;;;11.10;99.90;;;;;;5047345;28;20525;-53
2023/03/14 02:32:30;;;;;;;1.27;1.17;;;11.10;99.90;;;;;;5048092;28;20459;-53
2023/03/14 02:34:59;;;;;;;1.37;1.37;;;11.20;99.90;;;;;;5053613;28;20498;-53
2023/03/14 02:37:31;;;;;;;1.10;1.00;;;11.20;99.90;;;;;;5052817;28;20533;-52
2023/03/14 02:39:58;;;;;;;1.00;1.00;;;11.20;99.90;;;;;;5044450;28;20509;-53
2023/03/14 02:42:24;;;;;;;1.03;1.03;;;11.10;99.90;;;;;;5054246;28;21025;-54
2023/03/14 02:44:55;;;;;;;1.00;1.00;;;11.10;99.90;;;;;;5048290;28;20462;-53
2023/03/14 02:47:27;;;;;;;1.23;1.13;;;11.10;99.90;;;;;;5043087;28;20486;-53
2023/03/14 02:49:59;;;;;;;1.90;1.30;;;11.10;99.90;;;;;;5051601;28;20521;-53
2023/03/14 02:52:26;;;;;;;1.20;1.10;;;11.10;99.90;;;;;;5042548;28;20524;-52
2023/03/14 02:54:53;;;;;;;1.63;1.13;;;11.00;99.90;;;;;;5047763;28;20501;-53
2023/03/14 02:57:19;;;;;;;7.73;1.10;;;11.10;99.90;;;;;;5050916;28;20486;-52
2023/03/14 02:59:46;;;;;;;1.90;1.17;;;11.10;99.90;;;;;;5046171;28;20512;-54
2023/03/14 03:02:14;;;;;;;1.47;1.20;;;11.10;99.90;;;;;;5050986;28;20492;-53
2023/03/14 03:04:40;;;;;;;1.13;1.00;;;11.00;99.90;;;;;;5044158;28;20906;-52
2023/03/14 03:07:07;;;;;;;2.50;1.33;;;11.00;99.90;;;;;;5046472;28;20485;-52
2023/03/14 03:09:34;;;;;;;1.63;1.10;;;11.00;99.90;;;;;;5048044;28;20568;-55
2023/03/14 03:12:00;;;;;;;1.00;1.00;;;11.00;99.90;;;;;;5041252;28;20530;-56
2023/03/14 03:14:27;;;;;;;1.73;1.33;;;11.00;99.90;;;;;;5048714;28;20612;-57
2023/03/14 03:16:53;;;;;;;3.13;1.00;;;10.90;99.90;;;;;;5047126;28;20524;-56
2023/03/14 03:19:21;;;;;;;1.00;1.00;;;10.90;99.90;;;;;;5052482;28;20496;-56
2023/03/14 03:21:48;;;;;;;3.00;0.93;;;10.90;99.90;;;;;;5051392;28;20490;-56
2023/03/14 03:24:15;;;;;;;3.83;1.40;;;11.00;99.90;;;;;;5051124;28;20447;-57
2023/03/14 03:26:41;;;;;;;4.30;1.57;;;10.90;99.90;;;;;;5047037;28;20528;-56
2023/03/14 03:29:08;;;;;;;1.23;1.20;;;10.90;99.90;;;;;;5043888;28;20518;-56
2023/03/14 03:31:37;;;;;;;1.20;1.20;;;10.90;99.90;;;;;;5047084;28;20465;-56
2023/03/14 03:34:03;;;;;;;1.57;0.77;;;10.90;99.90;;;;;;5046877;28;20498;-56
2023/03/14 03:36:31;;;;;;;0.97;0.97;;;10.90;99.90;;;;;;5045268;28;20506;-53
2023/03/14 03:38:58;;;;;;;1.70;1.30;;;10.90;99.90;;;;;;5047897;28;20435;-53
2023/03/14 03:41:24;;;;;;;1.40;1.20;;;10.90;99.90;;;;;;5048661;28;21389;-53
2023/03/14 03:43:51;;;;;;;2.57;1.30;;;10.80;99.90;;;;;;5045955;28;20486;-54
2023/03/14 03:46:17;;;;;;;2.60;1.17;;;10.80;99.90;;;;;;5050993;28;20482;-53
2023/03/14 03:48:44;;;;;;;1.23;0.90;;;10.80;99.90;;;;;;5050543;28;20514;-53
2023/03/14 03:51:13;;;;;;;1.27;1.17;;;10.90;99.90;;;;;;5050586;28;20508;-54
2023/03/14 03:53:41;;;;;;;1.10;1.00;;;10.90;99.90;;;;;;5044452;28;20464;-54
2023/03/14 03:56:09;;;;;;;1.43;1.33;;;10.90;99.90;;;;;;5049538;28;20518;-53
2023/03/14 03:58:38;;;;;;;0.97;0.97;;;10.90;99.90;;;;;;5049283;28;20485;-53
2023/03/14 04:01:05;;;;;;;2.70;1.03;;;10.80;99.90;;;;;;5048665;28;20447;-53
2023/03/14 04:03:32;;;;;;;1.00;1.00;;;10.80;99.90;;;;;;5050830;28;20886;-53
2023/03/14 04:05:59;;;;;;;1.60;1.13;;;10.80;99.90;;;;;;5050946;28;20466;-53
2023/03/14 04:08:26;;;;;;;2.70;1.03;;;10.80;99.90;;;;;;5048616;28;21010;-53
2023/03/14 04:10:57;;;;;;;1.03;1.03;;;10.80;99.90;;;;;;5045450;28;20466;-53
2023/03/14 04:13:24;;;;;;;1.20;1.10;;;10.80;99.90;;;;;;5049607;28;20462;-53
2023/03/14 04:15:51;;;;;;;1.30;0.93;;;10.80;99.90;;;;;;5045379;28;20548;-53
2023/03/14 04:18:18;;;;;;;4.00;1.03;;;10.80;99.90;;;;;;5044645;28;20511;-53
2023/03/14 04:20:45;;;;;;;0.77;0.77;;;10.80;99.90;;;;;;5050825;28;20459;-53
2023/03/14 04:23:12;;;;;;;1.50;1.10;;;10.80;99.90;;;;;;5056329;28;20513;-53
2023/03/14 04:25:38;;;;;;;1.80;1.00;;;10.80;99.90;;;;;;5057716;28;20490;-53
2023/03/14 04:28:06;;;;;;;2.50;1.00;;;10.80;99.90;;;;;;5048251;28;20498;-53
2023/03/14 04:30:33;;;;;;;1.13;1.03;;;10.80;99.90;;;;;;5056155;28;20485;-52
2023/03/14 04:32:59;;;;;;;1.20;1.20;;;10.80;99.90;;;;;;5059545;28;20461;-51
2023/03/14 04:35:26;;;;;;;4.33;0.93;;;10.80;99.90;;;;;;5055067;28;20523;-55
2023/03/14 04:37:52;;;;;;;1.10;1.00;;;10.70;99.90;;;;;;5053828;28;20466;-52
2023/03/14 04:40:19;;;;;;;0.80;0.80;;;10.70;99.90;;;;;;5049583;28;20482;-51
2023/03/14 04:42:46;;;;;;;0.70;0.70;;;10.70;99.90;;;;;;5059340;28;20494;-52
2023/03/14 04:45:14;;;;;;;5.90;1.10;;;10.80;99.90;;;;;;5051596;28;20494;-52
2023/03/14 04:47:40;;;;;;;1.90;0.90;;;10.80;99.90;;;;;;5053099;28;20567;-51
2023/03/14 04:50:08;;;;;;;1.67;1.07;;;10.70;99.90;;;;;;5053582;28;20490;-52
2023/03/14 04:52:34;;;;;;;1.77;1.30;;;10.70;99.90;;;;;;5049989;28;20536;-51
2023/03/14 04:55:01;;;;;;;1.00;0.90;;;10.80;99.90;;;;;;5051321;28;20477;-49
2023/03/14 04:57:28;;;;;;;2.40;0.90;;;10.80;99.90;;;;;;5050280;28;20881;-52
2023/03/14 04:59:54;;;;;;;3.67;1.10;;;10.70;99.90;;;;;;5049092;28;20490;-50
2023/03/14 05:02:22;;;;;;;1.17;1.10;;;10.70;99.90;;;;;;5050879;28;21024;-51
2023/03/14 05:04:49;;;;;;;1.03;0.93;;;10.80;99.90;;;;;;5052038;28;20859;-51
2023/03/14 05:07:15;;;;;;;3.13;0.90;;;10.70;99.90;;;;;;5050283;28;20540;-50
2023/03/14 05:09:42;;;;;;;2.10;0.73;;;10.70;99.90;;;;;;5041353;28;20513;-52
2023/03/14 05:12:08;;;;;;;1.63;1.30;;;10.70;99.90;;;;;;5051243;28;20486;-50
2023/03/14 05:14:35;;;;;;;1.33;1.10;;;10.70;99.90;;;;;;5047083;28;20467;-51
2023/03/14 05:17:02;;;;;;;0.80;0.80;;;10.80;99.90;;;;;;5045755;28;20497;-51
2023/03/14 05:19:30;;;;;;;1.10;1.00;;;10.70;99.90;;;;;;5053299;28;20484;-51
2023/03/14 05:21:56;;;;;;;1.10;1.10;;;10.80;95.30;;;;;;5053538;28;20485;-51
2023/03/14 05:24:23;;;;;;;3.07;1.00;;;10.80;90.00;;;;;;5050448;28;20518;-52
2023/03/14 05:26:49;;;;;;;3.50;1.00;;;10.80;84.70;;;;;;5045700;28;20537;-51
2023/03/14 05:29:16;;;;;;;1.43;1.03;;;10.80;80.60;;;;;;5049418;28;20510;-51
2023/03/14 05:31:43;;;;;;;2.00;1.10;;;10.80;20.90;;;;;;5043777;28;20490;-51
2023/03/14 05:34:09;;;;;;;0.90;0.77;;;10.80;21.20;;;;;;5040252;28;20892;-51
2023/03/14 05:36:37;;;;;;;2.60;1.30;;;10.80;24.90;;;;;;5035817;28;20509;-51
2023/03/14 05:39:04;;;;;;;1.90;1.17;;;10.80;24.90;;;;;;5045605;28;20892;-51
2023/03/14 05:41:30;;;;;;;1.83;1.10;;;10.80;25.60;;;;;;5043761;28;20543;-51
2023/03/14 05:43:57;;;;;;;1.80;1.10;;;10.80;26.10;;;;;;5049832;28;20516;-50
2023/03/14 05:46:24;;;;;;;4.80;1.00;;;10.80;28.00;;;;;;5054162;28;20481;-50
2023/03/14 05:48:50;;;;;;;2.70;1.10;;;10.80;32.60;;;;;;5054365;28;20446;-52
2023/03/14 05:51:17;;;;;;;1.00;1.00;;;10.90;31.50;;;;;;5045109;28;20467;-51
2023/03/14 05:53:45;;;;;;;2.77;1.13;;;10.90;32.80;;;;;;5054095;28;20479;-50
2023/03/14 05:56:11;;;;;;;1.67;1.10;;;10.90;33.90;;;;;;5047273;28;20479;-51
2023/03/14 05:58:38;;;;;;;1.57;1.07;;;10.80;34.60;;;;;;5044310;28;20463;-51
2023/03/14 06:01:06;;;;;;;1.80;1.00;;;10.80;34.80;;;;;;5049289;28;20442;-51
2023/03/14 06:03:33;;;;;;;2.70;1.03;;;10.80;38.20;;;;;;5043781;28;20443;-51
2023/03/14 06:05:59;;;;;;;1.70;1.00;;;10.80;36.20;;;;;;5036012;28;20463;-51
2023/03/14 06:08:26;;;;;;;2.30;1.10;;;10.80;38.40;;;;;;5054540;28;20494;-51
2023/03/14 06:10:54;;;;;;;3.40;1.13;;;10.80;41.20;;;;;;5051934;28;20555;-51
2023/03/14 06:13:21;;;;;;;1.50;1.40;;;10.80;43.70;;;;;;5045936;28;20464;-51
2023/03/14 06:15:48;;;;;;;1.70;1.17;;;10.80;43.60;;;;;;5052645;28;20993;-50
2023/03/14 06:18:15;;;;;;;1.40;1.30;;;10.80;46.10;;;;;;5051108;28;20463;-50
2023/03/14 06:20:41;;;;;;;2.60;1.10;;;10.80;47.50;;;;;;5041087;28;20860;-51
2023/03/14 06:23:09;;;;;;;1.60;1.17;;;10.90;54.20;;;;;;5034472;28;20485;-51
2023/03/14 06:25:36;;;;;;;2.13;1.10;;;10.90;56.10;;;;;;5047938;28;20524;-52
2023/03/14 06:28:04;;;;;;;3.50;1.13;;;10.90;59.60;;;;;;5044218;28;21009;-50
2023/03/14 06:30:31;;;;;;;2.23;1.30;;;10.90;60.20;;;;;;5048408;28;20517;-50
2023/03/14 06:32:58;;;;;;;2.50;1.30;;;11.00;63.20;;;;;;5048278;28;21033;-50
2023/03/14 06:35:24;;;;;;;1.33;0.97;;;11.00;67.00;;;;;;5049521;28;20516;-50
2023/03/14 06:37:51;;;;;;;3.60;0.80;;;11.00;71.60;;;;;;5048180;28;20535;-50
2023/03/14 06:40:18;;;;;;;1.63;1.00;;;11.10;78.70;;;;;;5047785;28;20524;-51
2023/03/14 06:42:45;;;;;;;2.90;1.20;;;11.20;84.90;;;;;;5047891;28;20465;-51
2023/03/14 06:45:14;;;;;;;2.70;1.23;;;11.20;87.90;;;;;;5048053;28;20489;-51
2023/03/14 06:47:40;;;;;;;3.33;1.17;;;11.20;90.50;;;;;;5050586;28;20486;-50
2023/03/14 06:50:09;;;;;;;2.00;1.33;;;11.30;93.70;;;;;;5053091;28;20836;-50
2023/03/14 06:52:35;;;;;;;4.13;1.80;;;11.30;94.90;;;;;;5052341;28;20509;-51
2023/03/14 06:55:02;;;;;;;1.10;0.97;;;11.30;95.40;;;;;;5052087;28;20504;-51
2023/03/14 06:57:29;;;;;;;2.63;1.70;;;11.30;99.90;;;;;;5051524;28;20478;-51
2023/03/14 06:59:55;;;;;;;2.40;1.80;;;11.40;99.90;;;;;;5053024;28;20504;-50
2023/03/14 07:02:23;;;;;;;3.80;1.13;;;11.40;99.90;;;;;;5040166;28;20831;-51
2023/03/14 07:04:50;;;;;;;1.63;1.13;;;11.50;99.90;;;;;;5045527;28;20527;-51
2023/03/14 07:07:17;;;;;;;1.77;0.90;;;11.50;99.90;;;;;;5051382;28;20563;-51
2023/03/14 07:09:43;;;;;;;2.87;1.13;;;11.60;99.90;;;;;;5052554;28;20486;-50
2023/03/14 07:12:10;;;;;;;4.53;1.60;;;11.70;99.90;;;;;;5049060;28;20984;-51
2023/03/14 07:14:37;;;;;;;3.80;1.57;;;11.70;99.90;;;;;;5049816;28;20490;-50
2023/03/14 07:17:03;;;;;;;4.63;1.33;;;11.70;99.90;;;;;;5052242;28;20556;-51
2023/03/14 07:19:31;;;;;;;4.30;1.30;;;11.70;99.90;;;;;;5051346;28;20482;-51
2023/03/14 07:21:58;;;;;;;3.50;1.23;;;11.60;99.90;;;;;;5052587;28;20940;-51
2023/03/14 07:24:24;;;;;;;6.63;1.47;;;11.60;99.90;;;;;;5050534;28;20474;-51
2023/03/14 07:26:51;;;;;;;3.37;1.47;;;11.70;99.90;;;;;;5045352;28;20537;-51
2023/03/14 07:29:17;;;;;;;3.17;1.57;;;11.80;99.90;;;;;;5045767;28;20572;-51
2023/03/14 07:31:44;;;;;;;2.03;1.50;;;11.90;99.90;;;;;;5047749;28;20490;-51
2023/03/14 07:34:11;;;;;;;2.20;1.10;;;12.00;99.90;;;;;;5042508;28;20994;-51
2023/03/14 07:36:39;;;;;;;4.20;1.60;;;12.20;99.90;;;;;;5047991;28;20513;-50
2023/03/14 07:39:05;;;;;;;12.93;1.97;;;12.30;99.90;;;;;;5053491;28;20446;-50
2023/03/14 07:41:32;;;;;;;4.37;1.67;;;12.30;99.90;;;;;;5053410;28;20449;-51
2023/03/14 07:43:59;;;;;;;3.40;1.30;;;12.20;99.90;;;;;;5056815;28;20539;-51
2023/03/14 07:46:25;;;;;;;8.43;1.90;;;12.50;99.90;;;;;;5050837;28;21030;-52
2023/03/14 07:48:52;;;;;;;6.07;1.73;;;12.70;99.90;;;;;;5052521;28;20504;-51
2023/03/14 07:51:18;;;;;;;1.10;1.03;;;12.90;99.90;;;;;;5049441;28;20510;-51
2023/03/14 07:53:46;;;;;;;6.43;2.10;;;12.80;99.90;;;;;;5049366;28;20470;-50
2023/03/14 07:56:13;;;;;;;1.97;1.07;;;12.60;99.90;;;;;;5046330;28;20514;-51
2023/03/14 07:58:40;;;;;;;4.00;1.47;;;12.70;99.90;;;;;;5049158;28;20498;-52
2023/03/14 08:01:06;;;;;;;12.13;3.23;;;12.50;99.90;;;;;;5047839;28;20489;-51
2023/03/14 08:03:33;;;;;;;4.93;1.50;;;12.60;99.90;;;;;;5042938;28;20462;-51
2023/03/14 08:06:00;;;;;;;3.50;1.60;;;12.80;99.90;;;;;;5045964;28;20539;-52
2023/03/14 08:08:26;;;;;;;1.60;1.50;;;13.00;99.90;;;;;;5049544;28;20473;-51
2023/03/14 08:10:54;;;;;;;5.57;1.63;;;13.00;99.90;;;;;;5051434;28;20529;-51
2023/03/14 08:13:21;;;;;;;1.77;1.17;;;13.00;99.90;;;;;;5053284;28;20447;-51
2023/03/14 08:15:49;;;;;;;5.07;1.57;;;12.80;99.90;;;;;;5062790;23;20473;-52
2023/03/14 08:18:15;;;;;;;5.47;1.53;;;12.80;99.90;;;;;;5052331;28;21019;-52
2023/03/14 08:20:42;;;;;;;2.67;1.50;;;12.80;99.90;;;;;;5058106;28;20986;-53
2023/03/14 08:23:09;;;;;;;2.87;1.50;;;12.80;99.90;;;;;;5055777;28;20450;-52
2023/03/14 08:25:35;;;;;;;1.43;1.33;;;12.70;99.90;;;;;;5062075;28;20489;-52
2023/03/14 08:28:03;;;;;;;4.97;1.70;;;12.80;99.90;;;;;;5050862;28;20482;-52
2023/03/14 08:30:30;;;;;;;4.60;1.60;;;13.30;27.70;;;;;;5050197;28;20880;-52
2023/03/14 08:32:57;;;;;;;1.97;1.20;;;13.80;37.20;;;;;;5038387;28;20521;-52
2023/03/14 08:35:25;;;;;;;3.83;1.73;;;13.70;58.70;;;;;;5047422;28;20464;-52
2023/03/14 08:37:52;;;;;;;8.33;1.50;;;13.60;52.40;;;;;;5042004;28;20485;-52
2023/03/14 08:40:19;;;;;;;2.70;1.00;;;13.50;49.70;;;;;;5047935;28;20832;-51
2023/03/14 08:42:46;;;;;;;7.23;1.50;;;13.30;46.20;;;;;;5050441;28;20473;-51
2023/03/14 08:45:17;;;;;;;4.37;1.77;;;13.20;37.50;;;;;;5050903;28;20465;-52
2023/03/14 08:47:44;;;;;;;6.47;1.83;;;13.20;38.00;;;;;;5032048;28;20478;-52
2023/03/14 08:50:12;;;;;;;2.20;1.30;;;13.20;39.90;;;;;;5038932;28;20541;-52
2023/03/14 08:52:40;;;;;;;5.63;1.70;;;13.30;38.10;;;;;;5047207;28;20458;-52
2023/03/14 08:55:07;;;;;;;10.80;1.57;;;13.80;49.80;;;;;;5042262;28;20524;-53
2023/03/14 08:57:34;;;;;;;8.43;2.10;;;14.70;80.30;;;;;;5035531;28;20588;-53
2023/03/14 09:00:01;;;;;;;2.30;1.63;;;14.10;75.30;;;;;;5044918;28;20512;-52
2023/03/14 09:02:29;;;;;;;3.40;1.27;;;13.80;61.80;;;;;;5042461;28;20565;-52
2023/03/14 09:04:55;;;;;;;4.73;1.47;;;13.60;51.00;;;;;;5039243;28;20451;-53
2023/03/14 09:07:22;;;;;;;3.60;1.50;;;13.60;47.90;;;;;;5043782;28;20474;-52
2023/03/14 09:09:48;;;;;;;5.30;1.40;;;13.30;45.10;;;;;;5044468;28;20501;-52
2023/03/14 09:12:15;;;;;;;2.20;1.63;;;13.20;44.40;;;;;;5047207;28;20955;-52
2023/03/14 09:14:41;;;;;;;4.00;1.83;;;13.30;39.60;;;;;;5048001;28;21003;-51
2023/03/14 09:17:08;;;;;;;4.40;2.00;;;13.90;51.90;;;;;;5049370;28;20921;-52
2023/03/14 09:19:36;;;;;;;4.93;1.53;;;14.70;76.10;;;;;;5046732;28;20463;-52
2023/03/14 09:22:03;;;;;;;5.40;1.70;;;14.90;92.30;;;;;;5043342;28;20485;-52
2023/03/14 09:24:30;;;;;;;2.97;1.47;;;16.30;99.90;;;;;;5029735;28;20455;-52
2023/03/14 09:26:57;;;;;;;2.33;1.37;;;17.40;99.90;;;;;;5044573;28;20588;-52
2023/03/14 09:29:25;;;;;;;3.17;1.27;;;17.00;99.90;;;;;;5034700;28;20868;-52
2023/03/14 09:31:51;;;;;;;5.33;1.30;;;16.10;99.90;;;;;;5044966;28;20481;-52
2023/03/14 09:34:18;;;;;;;3.90;1.17;;;15.10;99.90;;;;;;5043349;28;20462;-51
2023/03/14 09:36:47;;;;;;;4.63;1.20;;;14.30;99.90;;;;;;5040318;28;20485;-52
2023/03/14 09:39:13;;;;;;;6.57;1.73;;;14.10;99.90;;;;;;5047741;28;20912;-51
2023/03/14 09:41:43;;;;;;;3.73;1.30;;;14.20;99.90;;;;;;5048792;28;20540;-53
2023/03/14 09:44:15;;;;;;;2.70;1.27;;;14.00;99.90;;;;;;5038983;28;20489;-53
2023/03/14 09:46:44;;;;;;;5.70;1.30;;;14.10;99.90;;;;;;5035345;28;20530;-52
2023/03/14 09:49:21;;;;;;;3.13;1.27;;;14.10;99.90;;;;;;5045216;28;20467;-51
2023/03/14 09:51:51;;;;;;;3.23;1.23;;;14.00;99.90;;;;;;5045814;28;20478;-52
2023/03/14 09:54:30;;;;;;;3.73;1.10;;;13.80;98.70;;;;;;5042998;28;20498;-52
2023/03/14 09:56:57;;;;;;;6.50;1.20;;;13.60;98.50;;;;;;5034475;28;20576;-52
2023/03/14 09:59:24;;;;;;;5.83;1.20;;;13.50;98.30;;;;;;5034370;28;20992;-52
2023/03/14 10:01:50;;;;;;;2.43;0.90;;;13.50;97.00;;;;;;5034652;28;20540;-53
2023/03/14 10:04:23;;;;;;;3.77;1.70;;;13.50;91.30;;;;;;5043002;28;20512;-51
2023/03/14 10:06:51;;;;;;;2.53;0.93;;;13.50;90.70;;;;;;5041659;28;20473;-52
2023/03/14 10:09:24;;;;;;;4.17;1.40;;;13.60;91.50;;;;;;5043993;28;20608;-51
2023/03/14 10:11:55;;;;;;;2.83;1.30;;;13.60;93.00;;;;;;5040408;28;20481;-51
2023/03/14 10:14:31;;;;;;;3.13;1.43;;;13.60;95.00;;;;;;5035368;28;20454;-51
2023/03/14 10:17:06;;;;;;;4.50;1.53;;;13.60;99.40;;;;;;5037417;28;20513;-52
2023/03/14 10:19:35;;;;;;;5.00;1.20;;;13.50;98.20;;;;;;5031182;28;20463;-52
2023/03/14 10:22:04;;;;;;;4.53;1.50;;;13.50;96.40;;;;;;5036762;28;20462;-53
2023/03/14 10:24:33;;;;;;;1.40;1.00;;;13.40;96.50;;;;;;5036764;28;20459;-51
2023/03/14 10:27:02;;;;;;;3.67;1.37;;;13.30;94.30;;;;;;5037300;28;20486;-51
2023/03/14 10:29:30;;;;;;;15.33;1.57;;;13.30;94.20;;;;;;5037431;28;20549;-51
2023/03/14 10:32:00;;;;;;;4.13;1.30;;;13.30;95.00;;;;;;5035771;28;20481;-53
2023/03/14 10:34:30;;;;;;;3.33;1.60;;;13.30;93.90;;;;;;5040106;28;20546;-52
2023/03/14 10:36:59;;;;;;;5.27;1.70;;;13.30;95.00;;;;;;5036130;28;20645;-52
2023/03/14 10:39:38;;;;;;;5.70;1.00;;;13.30;93.70;;;;;;5032302;28;20846;-52
2023/03/14 10:42:13;;;;;;;3.47;1.30;;;13.30;92.70;;;;;;5037643;28;20459;-52
2023/03/14 10:44:40;;;;;;;2.90;1.50;;;13.30;90.40;;;;;;5038145;28;20485;-52
2023/03/14 10:47:07;;;;;;;1.63;1.30;;;13.20;94.90;;;;;;5037226;28;20557;-52
2023/03/14 10:49:35;;;;;;;3.67;1.23;;;13.20;99.10;;;;;;5037424;28;21019;-52
2023/03/14 10:52:13;;;;;;;6.30;1.47;;;13.20;99.70;;;;;;5044032;28;20517;-53
2023/03/14 10:54:44;;;;;;;3.33;1.37;;;13.20;99.90;;;;;;5045045;28;20551;-52
2023/03/14 10:57:12;;;;;;;2.20;1.53;;;13.20;99.90;;;;;;5047197;28;20518;-52
2023/03/14 10:59:42;;;;;;;2.70;2.07;;;13.20;99.90;;;;;;5049624;28;20809;-52
2023/03/14 11:02:30;;;;;;;1.13;1.00;;;13.20;99.90;;;;;;5047542;28;20471;-52
2023/03/14 11:05:09;;;;;;;1.20;1.07;;;13.20;99.90;;;;;;5039410;28;20968;-54
2023/03/14 11:07:40;;;;;;;1.80;1.13;;;13.20;99.50;;;;;;5049224;28;20478;-52
2023/03/14 11:10:18;;;;;;;2.83;1.33;;;13.20;99.90;;;;;;5043427;28;20948;-52
2023/03/14 11:12:55;;;;;;;2.47;1.00;;;13.20;99.90;;;;;;5045223;28;20514;-52
2023/03/14 11:15:29;;;;;;;4.50;1.50;;;13.20;99.90;;;;;;5049834;28;20458;-51
2023/03/14 11:18:13;;;;;;;1.70;1.60;;;13.20;97.80;;;;;;5051977;28;20928;-52
2023/03/14 11:20:45;;;;;;;2.70;1.20;;;13.20;94.10;;;;;;5050026;28;20438;-53
2023/03/14 11:23:17;;;;;;;3.40;1.20;;;13.10;91.70;;;;;;5051225;28;20496;-53
2023/03/14 11:25:57;;;;;;;2.40;1.60;;;13.10;88.10;;;;;;5039592;28;20888;-53
2023/03/14 11:28:31;;;;;;;6.73;1.70;;;13.10;87.80;;;;;;5034695;28;20487;-52
2023/03/14 11:31:06;;;;;;;3.63;1.00;;;13.10;84.30;;;;;;5046791;28;20942;-52
2023/03/14 11:33:37;;;;;;;2.63;1.63;;;13.10;81.60;;;;;;5051410;28;20488;-51
2023/03/14 11:36:08;;;;;;;2.57;1.57;;;13.00;82.90;;;;;;5051908;28;20987;-52
2023/03/14 11:38:39;;;;;;;2.50;1.60;;;13.00;85.70;;;;;;5051351;28;21041;-52
2023/03/14 11:41:15;;;;;;;2.80;1.43;;;13.00;81.40;;;;;;5039314;28;20454;-51
2023/03/14 11:43:51;;;;;;;1.53;1.20;;;12.90;80.10;;;;;;5039326;28;20495;-52
2023/03/14 11:46:22;;;;;;;2.43;1.10;;;12.90;81.60;;;;;;5039340;28;20574;-52
2023/03/14 11:49:00;;;;;;;2.33;1.43;;;12.90;74.90;;;;;;5041458;28;20466;-52
2023/03/14 11:51:31;;;;;;;2.17;1.57;;;12.80;59.40;;;;;;5041624;28;20567;-53
2023/03/14 11:54:03;;;;;;;9.83;1.40;;;12.70;54.80;;;;;;5048263;28;21010;-52
2023/03/14 11:56:38;;;;;;;2.10;1.17;;;12.70;54.40;;;;;;5040597;28;20547;-53
2023/03/14 11:59:13;;;;;;;2.13;1.10;;;12.80;63.00;;;;;;5038339;28;20979;-52
2023/03/14 12:01:50;;;;;;;1.20;1.10;;;12.90;61.60;;;;;;5049466;28;20450;-51
2023/03/14 12:04:29;;;;;;;1.23;1.00;;;12.90;45.20;;;;;;5043353;28;20943;-51
2023/03/14 12:07:02;;;;;;;3.97;1.23;;;12.70;34.10;;;;;;5047318;28;20583;-52
2023/03/14 12:09:29;;;;;;;1.73;1.50;;;12.40;99.90;;;;;;5047801;28;20474;-51
2023/03/14 12:12:00;;;;;;;4.87;1.10;;;12.00;32.50;;;;;;5039852;28;20516;-51
2023/03/14 12:14:29;;;;;;;2.23;1.23;;;11.80;99.90;;;;;;5049974;28;20536;-52
2023/03/14 12:16:58;;;;;;;2.20;1.40;;;11.60;99.90;;;;;;5044300;28;20592;-52
2023/03/14 12:19:36;;;;;;;3.30;1.30;;;11.60;99.90;;;;;;5049997;28;20936;-53
2023/03/14 12:22:14;;;;;;;3.33;1.20;;;11.70;99.90;;;;;;5041552;28;20459;-53
2023/03/14 12:24:49;;;;;;;2.23;1.80;;;12.00;99.90;;;;;;5039326;28;20486;-53
2023/03/14 12:27:47;;;;;;;1.37;1.20;;;12.30;99.90;;;;;;5049266;28;20497;-52
2023/03/14 12:30:24;;;;;;;4.03;1.63;;;12.70;43.80;;;;;;5043153;28;20928;-53
2023/03/14 12:33:22;;;;;;;2.87;1.30;;;13.10;44.30;;;;;;5048508;28;20564;-52
2023/03/14 12:35:51;;;;;;;1.10;1.10;;;13.40;84.20;;;;;;5035895;28;20884;-53
2023/03/14 12:38:28;;;;;;;1.97;0.83;;;13.80;99.90;;;;;;5048928;28;20458;-52
2023/03/14 12:40:59;;;;;;;1.20;1.10;;;14.00;99.90;;;;;;5050647;28;20893;-53
2023/03/14 12:43:29;;;;;;;1.17;1.07;;;13.90;99.90;;;;;;5047005;28;20442;-52
2023/03/14 12:46:20;;;;;;;1.53;1.00;;;13.80;99.90;;;;;;5053652;28;20512;-53
2023/03/14 12:48:48;;;;;;;2.67;1.00;;;13.90;99.90;;;;;;5049730;28;20491;-52
2023/03/14 12:51:16;;;;;;;2.30;1.10;;;14.00;21.30;;;;;;5050628;28;21075;-52
2023/03/14 12:54:10;;;;;;;2.57;1.07;;;13.80;99.90;;;;;;5053658;28;20556;-52